sensor_id;sensor_type;location;lat;lon;timestamp;pressure;altitude;pressure_sealevel;temperature;humidity
53900;BME280;40509;32.858;-116.858;2023-06-22T00:01:21;97876.34;;;24.79;46.45
53900;BME280;40509;32.858;-116.858;2023-06-22T00:03:51;97870.06;;;24.80;46.37
53900;BME280;40509;32.858;-116.858;2023-06-22T00:06:17;97871.06;;;24.79;46.58
53900;BME280;40509;32.858;-116.858;2023-06-22T00:08:45;97867.44;;;24.80;46.61
53900;BME280;40509;32.858;-116.858;2023-06-22T00:11:11;97867.25;;;24.82;46.67
53900;BME280;40509;32.858;-116.858;2023-06-22T00:13:39;97862.97;;;24.81;46.38
53900;BME280;40509;32.858;-116.858;2023-06-22T00:16:06;97857.34;;;24.84;46.39
53900;BME280;40509;32.858;-116.858;2023-06-22T00:18:33;97860.75;;;24.92;46.53
53900;BME280;40509;32.858;-116.858;2023-06-22T00:20:59;97852.66;;;24.94;46.39
53900;BME280;40509;32.858;-116.858;2023-06-22T00:23:26;97854.59;;;25.00;46.17
53900;BME280;40509;32.858;-116.858;2023-06-22T00:25:53;97846.88;;;24.99;45.24
53900;BME280;40509;32.858;-116.858;2023-06-22T00:28:20;97849.16;;;25.02;41.68
53900;BME280;40509;32.858;-116.858;2023-06-22T00:30:48;97847.84;;;24.98;45.65
53900;BME280;40509;32.858;-116.858;2023-06-22T00:33:15;97836.47;;;24.97;45.52
53900;BME280;40509;32.858;-116.858;2023-06-22T00:35:42;97840.06;;;25.04;43.24
53900;BME280;40509;32.858;-116.858;2023-06-22T00:38:09;97848.16;;;25.03;45.65
53900;BME280;40509;32.858;-116.858;2023-06-22T00:40:36;97853.72;;;25.08;45.52
53900;BME280;40509;32.858;-116.858;2023-06-22T00:43:03;97839.88;;;25.06;43.97
53900;BME280;40509;32.858;-116.858;2023-06-22T00:45:31;97839.50;;;25.09;45.35
53900;BME280;40509;32.858;-116.858;2023-06-22T00:47:58;97844.16;;;25.07;45.49
53900;BME280;40509;32.858;-116.858;2023-06-22T00:50:26;97839.50;;;25.09;44.29
53900;BME280;40509;32.858;-116.858;2023-06-22T00:52:55;97842.81;;;25.11;44.65
53900;BME280;40509;32.858;-116.858;2023-06-22T00:55:23;97846.44;;;25.10;45.48
53900;BME280;40509;32.858;-116.858;2023-06-22T00:57:49;97837.53;;;25.11;45.62
53900;BME280;40509;32.858;-116.858;2023-06-22T01:00:16;97836.00;;;25.17;44.46
53900;BME280;40509;32.858;-116.858;2023-06-22T01:02:46;97837.47;;;25.19;43.70
53900;BME280;40509;32.858;-116.858;2023-06-22T01:05:13;97837.66;;;25.18;45.27
53900;BME280;40509;32.858;-116.858;2023-06-22T01:07:53;97835.47;;;25.21;45.05
53900;BME280;40509;32.858;-116.858;2023-06-22T01:13:16;97835.13;;;25.24;42.61
53900;BME280;40509;32.858;-116.858;2023-06-22T01:16:07;97834.28;;;25.24;43.29
53900;BME280;40509;32.858;-116.858;2023-06-22T01:18:32;97840.56;;;25.23;44.63
53900;BME280;40509;32.858;-116.858;2023-06-22T01:21:04;97839.38;;;25.25;45.75
53900;BME280;40509;32.858;-116.858;2023-06-22T01:29:22;97838.75;;;25.23;44.85
53900;BME280;40509;32.858;-116.858;2023-06-22T01:31:51;97842.00;;;25.34;45.55
53900;BME280;40509;32.858;-116.858;2023-06-22T01:34:19;97839.75;;;25.22;44.08
53900;BME280;40509;32.858;-116.858;2023-06-22T01:36:46;97845.03;;;25.22;45.35
53900;BME280;40509;32.858;-116.858;2023-06-22T01:39:14;97837.09;;;25.22;45.63
53900;BME280;40509;32.858;-116.858;2023-06-22T01:41:41;97839.75;;;25.22;41.54
53900;BME280;40509;32.858;-116.858;2023-06-22T01:44:09;97848.44;;;25.08;39.71
53900;BME280;40509;32.858;-116.858;2023-06-22T01:46:36;97845.28;;;24.89;40.65
53900;BME280;40509;32.858;-116.858;2023-06-22T01:49:04;97848.78;;;25.05;42.79
53900;BME280;40509;32.858;-116.858;2023-06-22T01:51:31;97855.66;;;25.14;43.96
53900;BME280;40509;32.858;-116.858;2023-06-22T01:54:00;97859.28;;;25.13;42.20
53900;BME280;40509;32.858;-116.858;2023-06-22T01:56:28;97857.31;;;25.15;41.35
53900;BME280;40509;32.858;-116.858;2023-06-22T01:59:39;97856.72;;;25.05;40.25
53900;BME280;40509;32.858;-116.858;2023-06-22T02:01:50;97852.88;;;24.84;40.15
53900;BME280;40509;32.858;-116.858;2023-06-22T02:04:24;97858.41;;;24.98;39.87
53900;BME280;40509;32.858;-116.858;2023-06-22T02:06:55;97853.38;;;25.11;43.64
53900;BME280;40509;32.858;-116.858;2023-06-22T02:09:23;97855.72;;;25.06;40.84
53900;BME280;40509;32.858;-116.858;2023-06-22T02:11:51;97857.00;;;25.10;39.72
53900;BME280;40509;32.858;-116.858;2023-06-22T02:14:23;97859.34;;;25.05;40.88
53900;BME280;40509;32.858;-116.858;2023-06-22T02:16:51;97859.22;;;24.98;39.80
53900;BME280;40509;32.858;-116.858;2023-06-22T02:19:22;97864.06;;;24.95;40.81
53900;BME280;40509;32.858;-116.858;2023-06-22T02:21:49;97864.88;;;24.95;41.44
53900;BME280;40509;32.858;-116.858;2023-06-22T02:24:16;97859.69;;;24.79;40.27
53900;BME280;40509;32.858;-116.858;2023-06-22T02:26:43;97858.41;;;24.74;40.35
53900;BME280;40509;32.858;-116.858;2023-06-22T02:29:11;97858.09;;;24.61;39.98
53900;BME280;40509;32.858;-116.858;2023-06-22T02:31:38;97859.63;;;24.55;39.92
53900;BME280;40509;32.858;-116.858;2023-06-22T02:34:06;97862.25;;;24.55;40.20
53900;BME280;40509;32.858;-116.858;2023-06-22T02:36:33;97859.31;;;24.50;40.10
53900;BME280;40509;32.858;-116.858;2023-06-22T02:39:00;97859.19;;;24.44;40.30
53900;BME280;40509;32.858;-116.858;2023-06-22T02:41:27;97859.66;;;24.47;39.83
53900;BME280;40509;32.858;-116.858;2023-06-22T02:43:56;97862.94;;;24.49;40.21
53900;BME280;40509;32.858;-116.858;2023-06-22T02:46:22;97861.50;;;24.38;40.94
53900;BME280;40509;32.858;-116.858;2023-06-22T02:48:50;97875.66;;;24.37;40.33
53900;BME280;40509;32.858;-116.858;2023-06-22T02:51:16;97869.28;;;24.32;40.22
53900;BME280;40509;32.858;-116.858;2023-06-22T02:53:43;97877.19;;;24.32;40.61
53900;BME280;40509;32.858;-116.858;2023-06-22T02:56:13;97870.63;;;24.19;40.87
53900;BME280;40509;32.858;-116.858;2023-06-22T02:58:40;97867.00;;;24.20;40.86
53900;BME280;40509;32.858;-116.858;2023-06-22T03:01:10;97875.56;;;24.22;40.52
53900;BME280;40509;32.858;-116.858;2023-06-22T03:03:41;97868.50;;;24.23;40.52
53900;BME280;40509;32.858;-116.858;2023-06-22T03:06:08;97874.75;;;24.22;40.86
53900;BME280;40509;32.858;-116.858;2023-06-22T03:08:40;97867.09;;;24.44;41.59
53900;BME280;40509;32.858;-116.858;2023-06-22T03:11:10;97869.75;;;24.35;40.57
53900;BME280;40509;32.858;-116.858;2023-06-22T03:13:38;97871.28;;;24.13;40.37
53900;BME280;40509;32.858;-116.858;2023-06-22T03:16:06;97875.94;;;24.11;40.82
53900;BME280;40509;32.858;-116.858;2023-06-22T03:18:33;97871.03;;;24.00;40.79
53900;BME280;40509;32.858;-116.858;2023-06-22T03:21:00;97868.06;;;23.95;40.46
53900;BME280;40509;32.858;-116.858;2023-06-22T03:23:28;97878.41;;;24.04;40.93
53900;BME280;40509;32.858;-116.858;2023-06-22T03:25:55;97876.97;;;23.94;40.86
53900;BME280;40509;32.858;-116.858;2023-06-22T03:28:22;97878.28;;;23.89;41.26
53900;BME280;40509;32.858;-116.858;2023-06-22T03:30:49;97883.03;;;23.86;41.48
53900;BME280;40509;32.858;-116.858;2023-06-22T03:33:16;97895.09;;;23.88;40.95
53900;BME280;40509;32.858;-116.858;2023-06-22T03:35:43;97897.53;;;23.82;41.13
53900;BME280;40509;32.858;-116.858;2023-06-22T03:38:11;97898.69;;;23.63;41.81
53900;BME280;40509;32.858;-116.858;2023-06-22T03:40:38;97895.59;;;23.59;41.77
53900;BME280;40509;32.858;-116.858;2023-06-22T03:43:05;97894.09;;;23.65;41.93
53900;BME280;40509;32.858;-116.858;2023-06-22T03:45:31;97903.00;;;23.55;41.98
53900;BME280;40509;32.858;-116.858;2023-06-22T03:47:58;97907.13;;;23.42;42.27
53900;BME280;40509;32.858;-116.858;2023-06-22T03:50:25;97911.38;;;23.26;42.41
53900;BME280;40509;32.858;-116.858;2023-06-22T03:52:52;97901.66;;;23.18;42.41
53900;BME280;40509;32.858;-116.858;2023-06-22T03:55:22;97905.78;;;22.70;43.59
53900;BME280;40509;32.858;-116.858;2023-06-22T03:57:49;97904.44;;;22.66;44.23
53900;BME280;40509;32.858;-116.858;2023-06-22T04:00:16;97906.66;;;22.44;44.02
53900;BME280;40509;32.858;-116.858;2023-06-22T04:02:43;97906.13;;;22.75;43.82
53900;BME280;40509;32.858;-116.858;2023-06-22T04:05:10;97912.25;;;22.92;43.29
53900;BME280;40509;32.858;-116.858;2023-06-22T04:07:37;97911.78;;;22.97;43.25
53900;BME280;40509;32.858;-116.858;2023-06-22T04:10:04;97918.84;;;22.96;43.63
53900;BME280;40509;32.858;-116.858;2023-06-22T04:12:31;97924.31;;;22.52;44.92
53900;BME280;40509;32.858;-116.858;2023-06-22T04:14:58;97922.72;;;22.67;44.41
53900;BME280;40509;32.858;-116.858;2023-06-22T04:17:25;97928.25;;;22.56;44.68
53900;BME280;40509;32.858;-116.858;2023-06-22T04:19:52;97923.88;;;22.73;44.67
53900;BME280;40509;32.858;-116.858;2023-06-22T04:22:18;97925.91;;;22.87;44.61
53900;BME280;40509;32.858;-116.858;2023-06-22T04:24:45;97933.16;;;22.94;44.38
53900;BME280;40509;32.858;-116.858;2023-06-22T04:27:12;97936.97;;;22.99;44.23
53900;BME280;40509;32.858;-116.858;2023-06-22T04:29:39;97942.97;;;22.75;44.84
53900;BME280;40509;32.858;-116.858;2023-06-22T04:32:15;97940.03;;;22.86;44.97
53900;BME280;40509;32.858;-116.858;2023-06-22T04:34:43;97938.13;;;23.05;45.16
53900;BME280;40509;32.858;-116.858;2023-06-22T04:37:10;97940.50;;;23.33;44.23
53900;BME280;40509;32.858;-116.858;2023-06-22T04:39:42;97942.34;;;23.40;44.25
53900;BME280;40509;32.858;-116.858;2023-06-22T04:42:09;97944.47;;;23.53;43.85
53900;BME280;40509;32.858;-116.858;2023-06-22T04:44:36;97943.66;;;23.53;43.59
53900;BME280;40509;32.858;-116.858;2023-06-22T04:47:03;97941.84;;;23.53;43.60
53900;BME280;40509;32.858;-116.858;2023-06-22T04:49:30;97956.03;;;23.52;43.56
53900;BME280;40509;32.858;-116.858;2023-06-22T04:52:03;97955.06;;;23.62;43.56
53900;BME280;40509;32.858;-116.858;2023-06-22T04:54:30;97951.25;;;23.56;43.97
53900;BME280;40509;32.858;-116.858;2023-06-22T04:57:02;97957.03;;;23.68;43.47
53900;BME280;40509;32.858;-116.858;2023-06-22T04:59:30;97941.03;;;23.78;43.73
53900;BME280;40509;32.858;-116.858;2023-06-22T05:01:57;97949.09;;;23.76;43.45
53900;BME280;40509;32.858;-116.858;2023-06-22T05:04:25;97947.16;;;23.78;43.54
53900;BME280;40509;32.858;-116.858;2023-06-22T05:06:52;97962.13;;;23.86;43.68
53900;BME280;40509;32.858;-116.858;2023-06-22T05:09:19;97949.47;;;23.89;43.79
53900;BME280;40509;32.858;-116.858;2023-06-22T05:11:46;97952.41;;;23.86;43.79
53900;BME280;40509;32.858;-116.858;2023-06-22T05:14:14;97950.44;;;23.88;44.51
53900;BME280;40509;32.858;-116.858;2023-06-22T05:16:41;97952.25;;;23.88;44.16
53900;BME280;40509;32.858;-116.858;2023-06-22T05:19:08;97947.66;;;23.90;44.46
53900;BME280;40509;32.858;-116.858;2023-06-22T05:21:35;97943.22;;;23.90;44.30
53900;BME280;40509;32.858;-116.858;2023-06-22T05:24:01;97944.34;;;23.96;44.05
53900;BME280;40509;32.858;-116.858;2023-06-22T05:26:29;97942.38;;;23.90;44.09
53900;BME280;40509;32.858;-116.858;2023-06-22T05:28:57;97945.19;;;23.88;44.56
53900;BME280;40509;32.858;-116.858;2023-06-22T05:31:24;97949.44;;;23.81;44.59
53900;BME280;40509;32.858;-116.858;2023-06-22T05:33:55;97932.16;;;23.79;44.66
53900;BME280;40509;32.858;-116.858;2023-06-22T05:36:22;97951.28;;;23.81;44.82
53900;BME280;40509;32.858;-116.858;2023-06-22T05:38:52;97946.97;;;23.80;44.77
53900;BME280;40509;32.858;-116.858;2023-06-22T05:41:19;97951.09;;;23.82;44.85
53900;BME280;40509;32.858;-116.858;2023-06-22T05:43:46;97942.03;;;23.77;45.24
53900;BME280;40509;32.858;-116.858;2023-06-22T05:46:13;97936.25;;;23.81;45.12
53900;BME280;40509;32.858;-116.858;2023-06-22T05:48:39;97934.78;;;23.87;45.29
53900;BME280;40509;32.858;-116.858;2023-06-22T05:51:06;97931.97;;;23.80;45.30
53900;BME280;40509;32.858;-116.858;2023-06-22T05:53:34;97928.00;;;23.84;44.83
53900;BME280;40509;32.858;-116.858;2023-06-22T05:56:00;97928.00;;;23.84;45.23
53900;BME280;40509;32.858;-116.858;2023-06-22T05:58:27;97925.56;;;23.83;45.03
53900;BME280;40509;32.858;-116.858;2023-06-22T06:00:54;97932.00;;;23.88;45.51
53900;BME280;40509;32.858;-116.858;2023-06-22T06:03:21;97936.97;;;23.92;45.54
53900;BME280;40509;32.858;-116.858;2023-06-22T06:05:48;97938.59;;;23.93;45.04
53900;BME280;40509;32.858;-116.858;2023-06-22T06:08:14;97931.69;;;23.92;45.50
53900;BME280;40509;32.858;-116.858;2023-06-22T06:10:41;97931.81;;;23.90;45.50
53900;BME280;40509;32.858;-116.858;2023-06-22T06:13:08;97936.28;;;23.89;45.28
53900;BME280;40509;32.858;-116.858;2023-06-22T06:15:35;97936.97;;;23.92;45.50
53900;BME280;40509;32.858;-116.858;2023-06-22T06:18:02;97940.56;;;23.90;45.70
53900;BME280;40509;32.858;-116.858;2023-06-22T06:20:31;97936.28;;;23.89;45.81
53900;BME280;40509;32.858;-116.858;2023-06-22T06:22:58;97935.31;;;23.90;45.45
53900;BME280;40509;32.858;-116.858;2023-06-22T06:25:25;97937.94;;;23.90;45.40
53900;BME280;40509;32.858;-116.858;2023-06-22T06:27:52;97944.19;;;23.89;45.43
53900;BME280;40509;32.858;-116.858;2023-06-22T06:30:21;97939.72;;;23.90;45.58
53900;BME280;40509;32.858;-116.858;2023-06-22T06:32:49;97946.84;;;23.89;46.06
53900;BME280;40509;32.858;-116.858;2023-06-22T06:35:16;97951.13;;;23.90;45.60
53900;BME280;40509;32.858;-116.858;2023-06-22T06:37:44;97960.00;;;23.89;45.91
53900;BME280;40509;32.858;-116.858;2023-06-22T06:40:12;97958.34;;;23.88;45.71
53900;BME280;40509;32.858;-116.858;2023-06-22T06:42:39;97968.91;;;23.88;45.88
53900;BME280;40509;32.858;-116.858;2023-06-22T06:45:08;97969.75;;;23.89;45.81
53900;BME280;40509;32.858;-116.858;2023-06-22T06:47:35;97967.22;;;23.87;45.79
53900;BME280;40509;32.858;-116.858;2023-06-22T06:50:03;97965.41;;;23.88;46.15
53900;BME280;40509;32.858;-116.858;2023-06-22T06:52:30;97959.31;;;23.87;45.94
53900;BME280;40509;32.858;-116.858;2023-06-22T06:54:57;97959.31;;;23.87;45.99
53900;BME280;40509;32.858;-116.858;2023-06-22T06:57:23;97972.50;;;23.87;46.22
53900;BME280;40509;32.858;-116.858;2023-06-22T06:59:55;97960.31;;;23.86;45.93
53900;BME280;40509;32.858;-116.858;2023-06-22T07:02:23;97957.00;;;23.84;46.18
53900;BME280;40509;32.858;-116.858;2023-06-22T07:04:50;97937.75;;;23.84;46.21
53900;BME280;40509;32.858;-116.858;2023-06-22T07:07:17;97950.09;;;23.83;46.35
53900;BME280;40509;32.858;-116.858;2023-06-22T07:09:44;97942.19;;;23.83;46.15
53900;BME280;40509;32.858;-116.858;2023-06-22T07:12:11;97944.97;;;23.82;46.25
53900;BME280;40509;32.858;-116.858;2023-06-22T07:14:38;97945.81;;;23.82;46.56
53900;BME280;40509;32.858;-116.858;2023-06-22T07:17:05;97934.44;;;23.82;46.22
53900;BME280;40509;32.858;-116.858;2023-06-22T07:19:32;97935.44;;;23.81;46.18
53900;BME280;40509;32.858;-116.858;2023-06-22T07:21:59;97942.50;;;23.80;46.20
53900;BME280;40509;32.858;-116.858;2023-06-22T07:24:26;97942.50;;;23.80;46.34
53900;BME280;40509;32.858;-116.858;2023-06-22T07:26:53;97926.88;;;23.79;46.32
53900;BME280;40509;32.858;-116.858;2023-06-22T07:29:20;97929.34;;;23.80;46.38
53900;BME280;40509;32.858;-116.858;2023-06-22T07:31:47;97932.97;;;23.79;46.43
53900;BME280;40509;32.858;-116.858;2023-06-22T07:34:16;97922.41;;;23.79;46.46
53900;BME280;40509;32.858;-116.858;2023-06-22T07:36:43;97922.75;;;23.76;46.44
53900;BME280;40509;32.858;-116.858;2023-06-22T07:39:10;97915.50;;;23.78;46.45
53900;BME280;40509;32.858;-116.858;2023-06-22T07:41:38;97923.25;;;23.80;46.80
53900;BME280;40509;32.858;-116.858;2023-06-22T07:44:07;97922.41;;;23.79;46.32
53900;BME280;40509;32.858;-116.858;2023-06-22T07:46:33;97917.13;;;23.79;46.29
53900;BME280;40509;32.858;-116.858;2023-06-22T07:49:02;97914.50;;;23.79;46.53
53900;BME280;40509;32.858;-116.858;2023-06-22T07:51:29;97905.97;;;23.77;46.40
53900;BME280;40509;32.858;-116.858;2023-06-22T07:53:56;97896.41;;;23.76;46.67
53900;BME280;40509;32.858;-116.858;2023-06-22T07:56:22;97892.78;;;23.77;46.54
53900;BME280;40509;32.858;-116.858;2023-06-22T07:58:49;97899.88;;;23.77;46.41
53900;BME280;40509;32.858;-116.858;2023-06-22T08:01:16;97891.78;;;23.78;46.54
53900;BME280;40509;32.858;-116.858;2023-06-22T08:03:43;97896.22;;;23.78;46.79
53900;BME280;40509;32.858;-116.858;2023-06-22T08:06:10;97896.22;;;23.78;46.55
53900;BME280;40509;32.858;-116.858;2023-06-22T08:08:37;97896.41;;;23.76;46.62
53900;BME280;40509;32.858;-116.858;2023-06-22T08:11:04;97889.78;;;23.80;46.63
53900;BME280;40509;32.858;-116.858;2023-06-22T08:13:31;97883.22;;;23.76;46.92
53900;BME280;40509;32.858;-116.858;2023-06-22T08:15:58;97875.47;;;23.74;46.59
53900;BME280;40509;32.858;-116.858;2023-06-22T08:18:25;97881.56;;;23.75;46.73
53900;BME280;40509;32.858;-116.858;2023-06-22T08:20:53;97895.41;;;23.77;46.90
53900;BME280;40509;32.858;-116.858;2023-06-22T08:23:19;97898.38;;;23.74;46.59
53900;BME280;40509;32.858;-116.858;2023-06-22T08:25:46;97903.66;;;23.74;46.86
53900;BME280;40509;32.858;-116.858;2023-06-22T08:28:14;97901.34;;;23.71;46.70
53900;BME280;40509;32.858;-116.858;2023-06-22T08:30:41;97895.75;;;23.74;46.96
53900;BME280;40509;32.858;-116.858;2023-06-22T08:33:07;97892.44;;;23.72;46.67
53900;BME280;40509;32.858;-116.858;2023-06-22T08:35:34;97901.03;;;23.66;46.75
53900;BME280;40509;32.858;-116.858;2023-06-22T08:38:01;97897.22;;;23.68;46.89
53900;BME280;40509;32.858;-116.858;2023-06-22T08:40:28;97903.97;;;23.71;46.68
53900;BME280;40509;32.858;-116.858;2023-06-22T08:42:56;97902.19;;;23.71;47.18
53900;BME280;40509;32.858;-116.858;2023-06-22T08:45:23;97897.38;;;23.67;46.72
53900;BME280;40509;32.858;-116.858;2023-06-22T08:47:50;97892.28;;;23.65;46.95
53900;BME280;40509;32.858;-116.858;2023-06-22T08:50:17;97897.56;;;23.65;46.69
53900;BME280;40509;32.858;-116.858;2023-06-22T08:52:44;97899.38;;;23.65;46.79
53900;BME280;40509;32.858;-116.858;2023-06-22T08:55:11;97893.44;;;23.63;47.24
53900;BME280;40509;32.858;-116.858;2023-06-22T08:57:39;97883.56;;;23.65;46.71
53900;BME280;40509;32.858;-116.858;2023-06-22T09:00:06;97870.06;;;23.60;46.96
53900;BME280;40509;32.858;-116.858;2023-06-22T09:02:42;97862.81;;;23.62;47.24
53900;BME280;40509;32.858;-116.858;2023-06-22T09:05:09;97859.53;;;23.60;46.86
53900;BME280;40509;32.858;-116.858;2023-06-22T09:07:35;97861.19;;;23.61;46.88
53900;BME280;40509;32.858;-116.858;2023-06-22T09:10:02;97863.13;;;23.58;47.02
53900;BME280;40509;32.858;-116.858;2023-06-22T09:12:32;97875.00;;;23.63;47.11
53900;BME280;40509;32.858;-116.858;2023-06-22T09:14:59;97869.25;;;23.59;47.13
53900;BME280;40509;32.858;-116.858;2023-06-22T09:17:31;97865.28;;;23.55;47.29
53900;BME280;40509;32.858;-116.858;2023-06-22T09:19:57;97870.06;;;23.60;47.30
53900;BME280;40509;32.858;-116.858;2023-06-22T09:22:24;97865.13;;;23.56;47.34
53900;BME280;40509;32.858;-116.858;2023-06-22T09:24:55;97870.72;;;23.53;47.19
53900;BME280;40509;32.858;-116.858;2023-06-22T09:27:22;97868.75;;;23.55;47.05
53900;BME280;40509;32.858;-116.858;2023-06-22T09:29:49;97872.88;;;23.50;47.13
53900;BME280;40509;32.858;-116.858;2023-06-22T09:32:17;97877.00;;;23.52;47.48
53900;BME280;40509;32.858;-116.858;2023-06-22T09:34:43;97871.56;;;23.54;47.39
53900;BME280;40509;32.858;-116.858;2023-06-22T09:37:10;97870.72;;;23.53;47.06
53900;BME280;40509;32.858;-116.858;2023-06-22T09:39:37;97881.25;;;23.53;47.17
53900;BME280;40509;32.858;-116.858;2023-06-22T09:42:04;97878.94;;;23.50;47.17
53900;BME280;40509;32.858;-116.858;2023-06-22T09:44:32;97878.78;;;23.52;47.41
53900;BME280;40509;32.858;-116.858;2023-06-22T09:46:59;97883.06;;;23.53;46.96
53900;BME280;40509;32.858;-116.858;2023-06-22T09:49:26;97881.41;;;23.44;47.41
53900;BME280;40509;32.858;-116.858;2023-06-22T09:51:53;97892.47;;;23.47;47.60
53900;BME280;40509;32.858;-116.858;2023-06-22T09:54:19;97893.44;;;23.46;47.20
53900;BME280;40509;32.858;-116.858;2023-06-22T09:56:46;97887.53;;;23.44;47.50
53900;BME280;40509;32.858;-116.858;2023-06-22T09:59:13;97892.78;;;23.44;47.42
53900;BME280;40509;32.858;-116.858;2023-06-22T10:01:40;97883.41;;;23.42;47.26
53900;BME280;40509;32.858;-116.858;2023-06-22T10:04:06;97887.53;;;23.44;47.46
53900;BME280;40509;32.858;-116.858;2023-06-22T10:06:33;97883.41;;;23.42;47.45
53900;BME280;40509;32.858;-116.858;2023-06-22T10:09:00;97880.09;;;23.39;47.11
53900;BME280;40509;32.858;-116.858;2023-06-22T10:11:27;97886.03;;;23.42;47.20
53900;BME280;40509;32.858;-116.858;2023-06-22T10:13:56;97880.94;;;23.40;47.21
53900;BME280;40509;32.858;-116.858;2023-06-22T10:16:24;97882.56;;;23.41;46.95
53900;BME280;40509;32.858;-116.858;2023-06-22T10:18:52;97877.63;;;23.38;47.38
53900;BME280;40509;32.858;-116.858;2023-06-22T10:21:19;97884.38;;;23.40;47.00
53900;BME280;40509;32.858;-116.858;2023-06-22T10:23:46;97880.28;;;23.38;47.51
53900;BME280;40509;32.858;-116.858;2023-06-22T10:26:13;97875.16;;;23.36;47.32
53900;BME280;40509;32.858;-116.858;2023-06-22T10:28:40;97876.31;;;23.34;47.32
53900;BME280;40509;32.858;-116.858;2023-06-22T10:31:06;97864.47;;;23.38;47.56
53900;BME280;40509;32.858;-116.858;2023-06-22T10:33:33;97877.97;;;23.35;47.60
53900;BME280;40509;32.858;-116.858;2023-06-22T10:36:00;97891.31;;;23.42;47.22
53900;BME280;40509;32.858;-116.858;2023-06-22T10:38:26;97877.97;;;23.35;47.23
53900;BME280;40509;32.858;-116.858;2023-06-22T10:40:53;97877.47;;;23.31;47.39
53900;BME280;40509;32.858;-116.858;2023-06-22T10:43:20;97873.53;;;23.35;47.63
53900;BME280;40509;32.858;-116.858;2023-06-22T10:45:47;97869.72;;;23.30;47.35
53900;BME280;40509;32.858;-116.858;2023-06-22T10:48:13;97881.09;;;23.30;47.12
53900;BME280;40509;32.858;-116.858;2023-06-22T10:50:40;97874.03;;;23.31;47.25
53900;BME280;40509;32.858;-116.858;2023-06-22T10:53:07;97877.47;;;23.31;47.40
53900;BME280;40509;32.858;-116.858;2023-06-22T10:55:34;97871.38;;;23.31;47.55
53900;BME280;40509;32.858;-116.858;2023-06-22T10:58:00;97872.38;;;23.30;47.68
53900;BME280;40509;32.858;-116.858;2023-06-22T11:00:27;97875.34;;;23.27;47.71
53900;BME280;40509;32.858;-116.858;2023-06-22T11:02:54;97863.16;;;23.26;47.64
53900;BME280;40509;32.858;-116.858;2023-06-22T11:05:21;97850.63;;;23.28;47.52
53900;BME280;40509;32.858;-116.858;2023-06-22T11:07:47;97859.53;;;23.27;47.51
53900;BME280;40509;32.858;-116.858;2023-06-22T11:10:15;97861.50;;;23.24;47.53
53900;BME280;40509;32.858;-116.858;2023-06-22T11:12:42;97861.50;;;23.24;47.53
53900;BME280;40509;32.858;-116.858;2023-06-22T11:15:09;97862.63;;;23.22;47.62
53900;BME280;40509;32.858;-116.858;2023-06-22T11:17:36;97867.75;;;23.23;47.59
53900;BME280;40509;32.858;-116.858;2023-06-22T11:20:03;97865.09;;;23.23;47.51
53900;BME280;40509;32.858;-116.858;2023-06-22T11:22:37;97860.69;;;23.24;47.33
53900;BME280;40509;32.858;-116.858;2023-06-22T11:25:05;97869.06;;;23.19;47.56
53900;BME280;40509;32.858;-116.858;2023-06-22T11:27:33;97871.84;;;23.18;47.77
53900;BME280;40509;32.858;-116.858;2023-06-22T11:30:00;97862.47;;;23.15;47.53
53900;BME280;40509;32.858;-116.858;2023-06-22T11:32:26;97868.41;;;23.17;47.45
53900;BME280;40509;32.858;-116.858;2023-06-22T11:34:53;97857.19;;;23.15;47.37
53900;BME280;40509;32.858;-116.858;2023-06-22T11:37:20;97856.91;;;23.18;47.47
53900;BME280;40509;32.858;-116.858;2023-06-22T11:39:47;97848.50;;;23.15;47.28
53900;BME280;40509;32.858;-116.858;2023-06-22T11:42:13;97849.31;;;23.15;47.29
53900;BME280;40509;32.858;-116.858;2023-06-22T11:44:41;97857.03;;;23.17;47.47
53900;BME280;40509;32.858;-116.858;2023-06-22T11:47:08;97866.13;;;23.14;47.42
53900;BME280;40509;32.858;-116.858;2023-06-22T11:49:35;97858.84;;;23.16;47.23
53900;BME280;40509;32.858;-116.858;2023-06-22T11:52:01;97868.88;;;23.13;47.23
53900;BME280;40509;32.858;-116.858;2023-06-22T11:54:28;97847.94;;;23.11;47.32
53900;BME280;40509;32.858;-116.858;2023-06-22T11:56:55;97861.13;;;23.11;47.55
53900;BME280;40509;32.858;-116.858;2023-06-22T11:59:22;97862.78;;;23.12;47.46
53900;BME280;40509;32.858;-116.858;2023-06-22T12:01:49;97859.50;;;23.10;47.59
53900;BME280;40509;32.858;-116.858;2023-06-22T12:04:17;97861.28;;;23.10;47.26
53900;BME280;40509;32.858;-116.858;2023-06-22T12:06:44;97857.00;;;23.08;47.76
53900;BME280;40509;32.858;-116.858;2023-06-22T12:09:11;97865.06;;;23.07;47.69
53900;BME280;40509;32.858;-116.858;2023-06-22T12:11:39;97880.41;;;23.12;47.47
53900;BME280;40509;32.858;-116.858;2023-06-22T12:14:09;97884.63;;;23.04;47.31
53900;BME280;40509;32.858;-116.858;2023-06-22T12:16:36;97886.28;;;23.05;47.33
53900;BME280;40509;32.858;-116.858;2023-06-22T12:19:03;97889.09;;;23.04;47.39
53900;BME280;40509;32.858;-116.858;2023-06-22T12:21:31;97895.00;;;23.06;47.08
53900;BME280;40509;32.858;-116.858;2023-06-22T12:23:58;97893.69;;;23.02;47.34
53900;BME280;40509;32.858;-116.858;2023-06-22T12:26:25;97898.13;;;23.01;47.24
53900;BME280;40509;32.858;-116.858;2023-06-22T12:28:52;97908.84;;;23.00;47.81
53900;BME280;40509;32.858;-116.858;2023-06-22T12:31:19;97909.81;;;22.99;47.31
53900;BME280;40509;32.858;-116.858;2023-06-22T12:33:45;97909.81;;;22.99;47.48
53900;BME280;40509;32.858;-116.858;2023-06-22T12:36:12;97910.47;;;23.01;47.16
53900;BME280;40509;32.858;-116.858;2023-06-22T12:38:39;97920.34;;;22.99;47.59
53900;BME280;40509;32.858;-116.858;2023-06-22T12:41:06;97930.88;;;22.99;47.14